createdAt,value
2022-11-25T00:01:26.824Z,100
2022-11-25T00:07:26.821Z,100
2022-11-25T00:13:26.759Z,100
2022-11-25T00:19:26.802Z,100
2022-11-25T00:25:26.773Z,100
2022-11-25T00:31:26.835Z,100
2022-11-25T00:37:26.953Z,100
2022-11-25T00:43:26.908Z,100
2022-11-25T00:49:26.766Z,100
2022-11-25T00:55:26.795Z,100
2022-11-25T01:01:26.843Z,100
2022-11-25T01:07:26.856Z,100
2022-11-25T01:13:26.845Z,100
2022-11-25T01:19:26.770Z,100
2022-11-25T01:25:26.767Z,100
2022-11-25T01:31:26.959Z,100
2022-11-25T01:37:26.780Z,100
2022-11-25T01:43:26.752Z,100
2022-11-25T01:49:26.787Z,100
2022-11-25T01:55:26.768Z,100
2022-11-25T02:01:26.823Z,100
2022-11-25T02:07:26.809Z,100
2022-11-25T02:13:26.767Z,100
2022-11-25T02:19:26.926Z,100
2022-11-25T02:25:26.765Z,100
2022-11-25T02:31:26.821Z,100
2022-11-25T02:37:26.744Z,100
2022-11-25T02:43:26.811Z,100
2022-11-25T02:49:26.745Z,100
2022-11-25T02:55:26.751Z,100
2022-11-25T03:01:26.859Z,100
2022-11-25T03:07:26.793Z,100
2022-11-25T03:13:26.765Z,100
2022-11-25T03:19:26.782Z,100
2022-11-25T03:25:26.768Z,100
2022-11-25T03:31:26.865Z,100
2022-11-25T03:37:26.807Z,100
2022-11-25T03:43:26.766Z,100
2022-11-25T03:49:26.755Z,100
2022-11-25T03:55:26.808Z,100
2022-11-25T04:01:26.902Z,100
2022-11-25T04:07:26.828Z,100
2022-11-25T04:13:26.767Z,100
2022-11-25T04:19:26.743Z,100
2022-11-25T04:25:26.731Z,100
2022-11-25T04:31:26.770Z,100
2022-11-25T04:37:26.990Z,100
2022-11-25T04:43:26.731Z,100
2022-11-25T04:49:26.776Z,100
2022-11-25T04:55:26.743Z,100
2022-11-25T05:01:26.848Z,100
2022-11-25T05:07:26.833Z,100
2022-11-25T05:13:27.022Z,100
2022-11-25T05:19:26.714Z,100
2022-11-25T05:25:26.771Z,100
2022-11-25T05:31:26.730Z,100
2022-11-25T05:37:26.742Z,100
2022-11-25T05:43:26.751Z,100
2022-11-25T05:49:26.986Z,100
2022-11-25T05:55:26.735Z,100
2022-11-25T06:01:26.748Z,100
2022-11-25T06:07:26.839Z,100
2022-11-25T06:13:26.734Z,100
2022-11-25T06:19:26.764Z,100
2022-11-25T06:25:26.722Z,100
2022-11-25T06:31:26.816Z,100
2022-11-25T06:37:26.759Z,100
2022-11-25T06:43:26.740Z,100
2022-11-25T06:49:26.777Z,100
2022-11-25T06:55:26.754Z,100
2022-11-25T07:01:26.794Z,100
2022-11-25T07:07:26.801Z,100
2022-11-25T07:13:26.747Z,100
2022-11-25T07:19:26.728Z,100
2022-11-25T07:25:30.710Z,100
2022-11-25T07:31:31.627Z,100
2022-11-25T07:37:26.756Z,100
2022-11-25T07:43:26.748Z,100
2022-11-25T07:49:26.763Z,100
2022-11-25T07:55:26.762Z,100
2022-11-25T08:01:26.843Z,100
2022-11-25T08:07:29.571Z,100
2022-11-25T08:13:26.738Z,100
2022-11-25T08:19:31.295Z,100
2022-11-25T08:25:26.743Z,100
2022-11-25T08:31:26.805Z,100
2022-11-25T08:37:26.721Z,100
2022-11-25T08:43:29.542Z,100
2022-11-25T08:49:26.744Z,100
2022-11-25T08:55:26.731Z,100
2022-11-25T09:01:26.842Z,100
2022-11-25T09:07:30.664Z,100
2022-11-25T09:13:26.744Z,100
2022-11-25T09:19:26.757Z,100
2022-11-25T09:25:26.733Z,98.4
2022-11-25T09:31:26.771Z,79.6
2022-11-25T09:37:26.748Z,71.2
2022-11-25T09:43:26.730Z,74.4
2022-11-25T09:49:26.744Z,67.5
2022-11-25T09:55:26.758Z,68
2022-11-25T10:01:26.748Z,85.7
2022-11-25T10:07:26.717Z,97.2
2022-11-25T10:13:26.760Z,93.3
2022-11-25T10:19:26.743Z,79.8
2022-11-25T10:25:26.739Z,68.4
2022-11-25T10:31:26.880Z,68.5
2022-11-25T10:37:26.757Z,66
2022-11-25T10:43:31.373Z,63.9
2022-11-25T10:49:26.773Z,69.6
2022-11-25T10:55:26.754Z,75.7
2022-11-25T11:01:26.823Z,84
2022-11-25T11:07:26.861Z,94.3
2022-11-25T11:13:26.789Z,96.2
2022-11-25T11:19:26.747Z,95
2022-11-25T11:25:26.802Z,97
2022-11-25T11:31:26.848Z,91.8
2022-11-25T11:37:26.765Z,90
2022-11-25T11:43:26.763Z,90.7
2022-11-25T11:49:30.544Z,91.9
2022-11-25T11:55:26.751Z,91.7
2022-11-25T12:01:26.779Z,86.9
2022-11-25T12:07:26.832Z,85.3
2022-11-25T12:13:26.770Z,88.5
2022-11-25T12:19:26.807Z,87.9
2022-11-25T12:25:26.752Z,90.7
2022-11-25T12:31:26.825Z,92.2
2022-11-25T12:37:26.783Z,89.3
2022-11-25T12:43:26.740Z,90.5
2022-11-25T12:49:26.763Z,89.8
2022-11-25T12:55:26.793Z,89
2022-11-25T13:01:26.843Z,90.7
2022-11-25T13:07:26.895Z,90.8
2022-11-25T13:13:27.080Z,91.1
2022-11-25T13:19:26.802Z,90.1
2022-11-25T13:25:26.752Z,90.6
2022-11-25T13:31:26.861Z,89.6
2022-11-25T13:37:26.774Z,86.4
2022-11-25T13:43:26.747Z,85
2022-11-25T13:49:26.779Z,83.2
2022-11-25T13:55:26.783Z,84
2022-11-25T14:01:30.266Z,82.9
2022-11-25T14:07:26.899Z,83.5
2022-11-25T14:13:26.754Z,85.8
2022-11-25T14:19:53.200Z,86.5
2022-11-25T14:25:26.800Z,85.8
2022-11-25T14:31:26.860Z,87.1
2022-11-25T14:37:26.772Z,87.5
2022-11-25T14:43:26.779Z,88.9
2022-11-25T14:49:48.860Z,90.2
2022-11-25T14:55:26.764Z,90.7
2022-11-25T15:01:26.773Z,92
2022-11-25T15:07:31.069Z,91.8
2022-11-25T15:13:26.785Z,92.2
2022-11-25T15:19:33.949Z,91.9
2022-11-25T15:25:26.742Z,92.3
2022-11-25T15:31:26.855Z,94.3
2022-11-25T15:37:26.875Z,94.5
2022-11-25T15:43:26.766Z,95.2
2022-11-25T15:49:26.780Z,94.5
2022-11-25T15:55:26.782Z,94.4
2022-11-25T16:01:26.787Z,94.2
2022-11-25T16:07:26.861Z,92.9
2022-11-25T16:13:26.791Z,93.6
2022-11-25T16:19:26.791Z,94.6
2022-11-25T16:25:26.830Z,95.1
2022-11-25T16:31:26.839Z,94.7
2022-11-25T16:37:26.754Z,94.4
2022-11-25T16:43:26.768Z,94.3
2022-11-25T16:49:26.785Z,94.7
2022-11-25T16:55:26.804Z,95.3
2022-11-25T17:01:26.813Z,97
2022-11-25T17:07:34.521Z,97.2
2022-11-25T17:13:26.761Z,97.4
2022-11-25T17:19:26.846Z,97.8
2022-11-25T17:25:27.590Z,97.3
2022-11-25T17:31:26.824Z,98.2
2022-11-25T17:37:26.768Z,99.1
2022-11-25T17:43:31.687Z,99.3
2022-11-25T17:49:26.789Z,99.8
2022-11-25T17:55:26.764Z,100
2022-11-25T18:01:26.862Z,100
2022-11-25T18:07:26.807Z,100
2022-11-25T18:13:26.756Z,98.8
2022-11-25T18:19:26.803Z,98.3
2022-11-25T18:25:26.750Z,97.6
2022-11-25T18:31:26.884Z,98.8
2022-11-25T18:37:26.799Z,98
2022-11-25T18:43:26.805Z,97.3
2022-11-25T18:49:26.793Z,98.3
2022-11-25T18:55:26.815Z,99.7
2022-11-25T19:01:26.971Z,100
2022-11-25T19:07:26.791Z,100
2022-11-25T19:13:26.772Z,100
2022-11-25T19:19:26.769Z,100
2022-11-25T19:25:26.789Z,100
2022-11-25T19:31:26.833Z,100
2022-11-25T19:37:26.763Z,100
2022-11-25T19:43:26.768Z,100
2022-11-25T19:49:26.779Z,100
2022-11-25T19:55:26.777Z,100
2022-11-25T20:01:26.831Z,100
2022-11-25T20:07:26.924Z,100
2022-11-25T20:13:26.756Z,100
2022-11-25T20:19:26.776Z,100
2022-11-25T20:25:26.816Z,100
2022-11-25T20:31:30.321Z,100
2022-11-25T20:37:26.747Z,100
2022-11-25T20:43:26.810Z,100
2022-11-25T20:49:26.834Z,100
2022-11-25T20:55:26.775Z,100
2022-11-25T21:01:26.861Z,100
2022-11-25T21:07:26.834Z,100
2022-11-25T21:13:26.791Z,100
2022-11-25T21:19:26.788Z,100
2022-11-25T21:25:26.775Z,100
2022-11-25T21:31:26.774Z,100
2022-11-25T21:37:26.775Z,100
2022-11-25T21:43:26.782Z,100
2022-11-25T21:49:26.769Z,100
2022-11-25T21:55:26.779Z,100
2022-11-25T22:01:26.813Z,100
2022-11-25T22:07:30.728Z,100
2022-11-25T22:13:26.791Z,100
2022-11-25T22:19:26.759Z,100
2022-11-25T22:25:26.779Z,100
2022-11-25T22:31:26.846Z,100
2022-11-25T22:37:26.958Z,100
2022-11-25T22:43:26.752Z,100
2022-11-25T22:49:26.812Z,100
2022-11-25T22:55:26.775Z,100
2022-11-25T23:01:26.991Z,100
2022-11-25T23:07:26.829Z,100
2022-11-25T23:13:26.784Z,100
2022-11-25T23:19:26.755Z,100
2022-11-25T23:25:26.769Z,100
2022-11-25T23:31:26.827Z,100
2022-11-25T23:37:26.800Z,100
2022-11-25T23:43:26.790Z,100
2022-11-25T23:49:26.804Z,100
2022-11-25T23:55:26.785Z,100
